Skip Navigation LinksHome page > Weather > Current weather Skip Navigation Links

Current Weather

Jakutsk, Russia

For information only: do not use for flight planning or navigation.
Latest weather
Observation time Friday, March 23, 2018 4:00 PM JST
Local time Friday, March 23, 2018 4:17 PM JST
Flight conditions Visual Meteorological Conditions
Wind direction Northeast (40°)
Wind speed 4 mph
Visibility 6.2 mi.
Sky condition
Ceiling unlimited
Sky clear
Temperature 19°F
Dewpoint 1°F
Altimeter 29.80 in.Hg
QF 4:28 AM
Derived measurements
Relative humidity 45%
Wind chill 13°F
Density altitude -2216 ft.
Ceiling and visibility OK.
No significant changes expected in the next two hours.
METAR UEEE 230700Z 04002MPS CAVOK M07/M17 Q1009 R23L/450150 NOSIG RMK QFE748


Location code

InnerDrive.Weather 4.0.6615.0 Release CLR 4.0.30319.42000
Copyright ©2018 Inner Drive Technology. All rights reserved. Portions Copyright ©1986-2018 David Braverman.

Find weather

Site navigation

Skip Navigation Links

Place info

Page info

PayPal - The safer, easier way to pay online!

Return home.

Copyright ©2018 Inner Drive Technology. Purveyors of fine, hand-crafted computer software. Page printed 2018-03-23T07:17:54 UTC.